createdAt,value
2022-10-19T00:00:21.890Z,85.93
2022-10-19T00:01:24.203Z,86.05
2022-10-19T00:02:26.561Z,85.81
2022-10-19T00:03:29.382Z,85.19
2022-10-19T00:04:34.597Z,85.50
2022-10-19T00:05:36.879Z,85.31
2022-10-19T00:06:39.165Z,85.03
2022-10-19T00:07:41.461Z,84.99
2022-10-19T00:08:44.506Z,84.88
2022-10-19T00:09:46.690Z,84.80
2022-10-19T00:10:48.968Z,84.77
2022-10-19T00:11:54.427Z,84.89
2022-10-19T00:12:56.718Z,84.87
2022-10-19T00:13:59.589Z,84.75
2022-10-19T00:15:01.803Z,84.35
2022-10-19T00:16:12.575Z,84.43
2022-10-19T00:17:14.865Z,84.39
2022-10-19T00:18:17.189Z,84.25
2022-10-19T00:19:23.360Z,84.22
2022-10-19T00:20:25.517Z,84.28
2022-10-19T00:21:28.351Z,84.51
2022-10-19T00:22:32.972Z,84.23
2022-10-19T00:23:36.441Z,84.24
2022-10-19T00:24:39.002Z,84.17
2022-10-19T00:25:41.158Z,84.33
2022-10-19T00:26:43.403Z,84.51
2022-10-19T00:27:45.552Z,84.69
2022-10-19T00:28:47.739Z,84.88
2022-10-19T00:29:50.085Z,85.05
2022-10-19T00:30:56.511Z,84.93
2022-10-19T00:31:58.690Z,85.09
2022-10-19T00:33:04.684Z,85.17
2022-10-19T00:34:06.977Z,85.02
2022-10-19T00:35:09.232Z,84.90
2022-10-19T00:36:24.576Z,84.91
2022-10-19T00:37:26.892Z,84.87
2022-10-19T00:38:29.254Z,84.90
2022-10-19T00:39:34.290Z,84.53
2022-10-19T00:40:40.197Z,84.70
2022-10-19T00:41:43.921Z,84.62
2022-10-19T00:42:46.188Z,84.73
2022-10-19T00:43:57.009Z,84.83
2022-10-19T00:45:00.364Z,84.72
2022-10-19T00:46:02.416Z,84.59
2022-10-19T00:47:08.307Z,84.66
2022-10-19T00:48:14.403Z,84.56
2022-10-19T00:49:29.214Z,85.00
2022-10-19T00:50:31.421Z,84.72
2022-10-19T00:51:36.558Z,84.52
2022-10-19T00:52:38.831Z,84.93
2022-10-19T00:53:41.570Z,84.82
2022-10-19T00:54:47.128Z,84.98
2022-10-19T00:55:49.342Z,84.89
2022-10-19T00:56:54.911Z,85.21
2022-10-19T00:57:57.510Z,85.20
2022-10-19T00:58:59.777Z,85.21
2022-10-19T01:00:06.650Z,85.02
2022-10-19T01:01:10.858Z,84.74
2022-10-19T01:02:13.443Z,84.72
2022-10-19T01:03:15.949Z,84.74
2022-10-19T01:04:21.038Z,84.71
2022-10-19T01:05:23.653Z,84.38
2022-10-19T01:06:26.838Z,84.53
2022-10-19T01:07:29.318Z,84.34
2022-10-19T01:08:32.672Z,84.76
2022-10-19T01:09:34.863Z,84.86
2022-10-19T01:10:47.458Z,85.16
2022-10-19T01:11:57.352Z,85.31
2022-10-19T01:13:05.880Z,85.60
2022-10-19T01:14:26.593Z,85.53
2022-10-19T01:15:46.295Z,85.42
2022-10-19T01:17:07.050Z,84.98
2022-10-19T01:18:26.516Z,85.30
2022-10-19T01:19:34.703Z,85.07
2022-10-19T01:20:51.858Z,84.65
2022-10-19T01:22:12.442Z,84.50
2022-10-19T01:23:38.683Z,84.53
2022-10-19T01:24:52.852Z,85.00
2022-10-19T01:25:57.936Z,85.00
2022-10-19T01:27:21.588Z,84.68
2022-10-19T01:29:20.092Z,84.85
2022-10-19T01:30:42.136Z,85.07
2022-10-19T01:32:10.259Z,85.18
2022-10-19T01:33:32.228Z,85.51
2022-10-19T01:35:05.174Z,85.50
2022-10-19T01:36:18.198Z,85.52
2022-10-19T01:37:28.688Z,85.34
2022-10-19T01:38:51.748Z,85.42
2022-10-19T01:40:09.730Z,84.88
2022-10-19T01:41:23.000Z,84.86
2022-10-19T01:42:25.279Z,84.89
2022-10-19T01:43:39.471Z,85.00
2022-10-19T01:44:55.581Z,84.75
2022-10-19T01:46:06.286Z,84.71
2022-10-19T01:47:33.809Z,84.71
2022-10-19T01:48:40.528Z,84.68
2022-10-19T01:49:55.530Z,84.47
2022-10-19T01:51:02.567Z,84.41
2022-10-19T01:52:09.176Z,84.60
2022-10-19T01:53:12.851Z,84.16
2022-10-19T01:54:17.981Z,83.98
2022-10-19T01:55:21.690Z,83.84
2022-10-19T01:56:27.204Z,83.82
2022-10-19T01:57:36.455Z,83.56
2022-10-19T01:58:41.300Z,83.63
2022-10-19T01:59:45.316Z,83.57
2022-10-19T02:00:50.930Z,83.78
2022-10-19T02:01:55.411Z,83.89
2022-10-19T02:03:00.564Z,83.65
2022-10-19T02:04:04.653Z,83.44
2022-10-19T02:05:08.279Z,83.30
2022-10-19T02:06:12.929Z,83.54
2022-10-19T02:07:16.289Z,83.23
2022-10-19T02:08:27.825Z,82.99
2022-10-19T02:09:30.711Z,82.54
2022-10-19T02:10:37.338Z,82.54
2022-10-19T02:11:39.780Z,82.51
2022-10-19T02:12:42.792Z,82.49
2022-10-19T02:13:48.620Z,82.34
2022-10-19T02:14:56.583Z,82.48
2022-10-19T02:16:03.487Z,82.38
2022-10-19T02:17:10.032Z,82.49
2022-10-19T02:18:15.607Z,82.50
2022-10-19T02:19:20.166Z,82.51
2022-10-19T02:20:23.009Z,81.97
2022-10-19T02:21:26.634Z,82.14
2022-10-19T02:22:29.297Z,82.03
2022-10-19T02:23:31.516Z,81.67
2022-10-19T02:24:33.878Z,81.74
2022-10-19T02:25:36.860Z,81.82
2022-10-19T02:26:40.517Z,81.73
2022-10-19T02:27:43.260Z,81.26
2022-10-19T02:28:45.893Z,80.84
2022-10-19T02:29:48.131Z,81.10
2022-10-19T02:30:50.723Z,80.95
2022-10-19T02:31:53.236Z,80.78
2022-10-19T02:32:55.465Z,80.58
2022-10-19T02:33:57.663Z,80.50
2022-10-19T02:35:00.035Z,80.41
2022-10-19T02:36:02.950Z,80.12
2022-10-19T02:37:06.122Z,80.20
2022-10-19T02:38:11.785Z,79.98
2022-10-19T02:39:16.786Z,80.17
2022-10-19T02:40:19.258Z,80.20
2022-10-19T02:41:36.710Z,80.42
2022-10-19T02:43:00.597Z,80.44
2022-10-19T02:44:09.966Z,80.40
2022-10-19T02:45:29.025Z,80.83
2022-10-19T02:46:44.918Z,80.79
2022-10-19T02:48:05.267Z,80.43
2022-10-19T02:49:09.395Z,80.12
2022-10-19T02:50:11.861Z,79.72
2022-10-19T02:51:28.711Z,79.77
2022-10-19T02:52:30.913Z,80.28
2022-10-19T02:53:33.301Z,80.45
2022-10-19T02:54:37.489Z,80.67
2022-10-19T02:56:43.713Z,80.74
2022-10-19T02:57:45.880Z,80.99
2022-10-19T02:58:48.052Z,81.15
2022-10-19T02:59:51.217Z,81.17
2022-10-19T03:00:53.447Z,81.25
2022-10-19T03:01:56.034Z,81.82
2022-10-19T03:02:58.308Z,81.76
2022-10-19T03:04:00.510Z,81.42
2022-10-19T03:05:03.548Z,80.93
2022-10-19T03:06:05.792Z,80.88
2022-10-19T03:07:12.822Z,81.35
2022-10-19T03:08:14.981Z,81.79
2022-10-19T03:09:17.288Z,81.87
2022-10-19T03:10:19.575Z,81.74
2022-10-19T03:11:21.709Z,81.36
2022-10-19T03:12:24.146Z,81.78
2022-10-19T03:13:26.553Z,81.79
2022-10-19T03:14:28.690Z,81.32
2022-10-19T03:15:31.078Z,81.58
2022-10-19T03:16:33.391Z,80.84
2022-10-19T03:17:36.220Z,80.32
2022-10-19T03:18:38.853Z,79.84
2022-10-19T03:19:41.100Z,80.17
2022-10-19T03:20:43.433Z,80.57
2022-10-19T03:21:45.587Z,81.03
2022-10-19T03:22:47.990Z,81.35
2022-10-19T03:23:50.217Z,81.76
2022-10-19T03:24:52.380Z,82.10
2022-10-19T03:25:54.594Z,82.24
2022-10-19T03:26:57.273Z,82.23
2022-10-19T03:27:59.588Z,81.67
2022-10-19T03:29:01.941Z,81.81
2022-10-19T03:30:04.449Z,81.67
2022-10-19T03:31:06.808Z,81.44
2022-10-19T03:33:11.636Z,81.37
2022-10-19T03:34:13.979Z,81.30
2022-10-19T03:35:16.196Z,81.26
2022-10-19T03:36:30.030Z,81.06
2022-10-19T03:37:32.681Z,81.22
2022-10-19T03:38:35.120Z,81.32
2022-10-19T03:39:37.328Z,81.06
2022-10-19T03:40:39.692Z,81.04
2022-10-19T03:41:42.736Z,81.26
2022-10-19T03:42:45.097Z,81.14
2022-10-19T03:43:47.585Z,80.93
2022-10-19T03:44:49.774Z,81.15
2022-10-19T03:45:52.076Z,80.90
2022-10-19T03:46:54.378Z,80.71
2022-10-19T03:47:56.640Z,79.80
2022-10-19T03:48:58.883Z,79.54
2022-10-19T03:50:01.029Z,79.85
2022-10-19T03:51:06.168Z,79.83
2022-10-19T03:52:10.025Z,79.74
2022-10-19T03:53:12.558Z,79.74
2022-10-19T03:54:16.786Z,79.68
2022-10-19T03:55:19.132Z,79.41
2022-10-19T03:56:25.123Z,79.50
2022-10-19T03:57:27.461Z,78.66
2022-10-19T03:58:33.054Z,77.93
2022-10-19T03:59:35.261Z,77.89
2022-10-19T04:00:37.471Z,78.18
2022-10-19T04:01:42.259Z,78.00
2022-10-19T04:02:44.541Z,78.33
2022-10-19T04:03:46.917Z,78.64
2022-10-19T04:04:49.089Z,78.49
2022-10-19T04:05:51.524Z,78.89
2022-10-19T04:06:53.923Z,78.32
2022-10-19T04:07:56.282Z,77.69
2022-10-19T04:08:58.570Z,77.83
2022-10-19T04:10:00.861Z,78.30
2022-10-19T04:11:06.848Z,78.57
2022-10-19T04:12:09.240Z,78.78
2022-10-19T04:13:11.577Z,78.86
2022-10-19T04:14:22.870Z,78.62
2022-10-19T04:15:35.318Z,78.55
2022-10-19T04:16:37.764Z,78.72
2022-10-19T04:17:40.118Z,78.98
2022-10-19T04:18:42.700Z,79.17
2022-10-19T04:19:44.866Z,79.16
2022-10-19T04:20:47.268Z,78.84
2022-10-19T04:21:49.735Z,78.78
2022-10-19T04:22:54.928Z,78.64
2022-10-19T04:24:03.903Z,78.90
2022-10-19T04:25:06.993Z,79.07
2022-10-19T04:26:09.899Z,79.18
2022-10-19T04:27:12.060Z,78.68
2022-10-19T04:28:14.532Z,78.29
2022-10-19T04:29:19.138Z,77.98
2022-10-19T04:30:21.411Z,77.16
2022-10-19T04:31:23.710Z,76.80
2022-10-19T04:32:25.855Z,76.94
2022-10-19T04:33:28.227Z,76.97
2022-10-19T04:34:30.450Z,76.93
2022-10-19T04:35:32.656Z,76.82
2022-10-19T04:36:35.457Z,76.93
2022-10-19T04:37:37.601Z,77.11
2022-10-19T04:38:39.901Z,77.46
2022-10-19T04:39:43.421Z,77.15
2022-10-19T04:40:45.593Z,77.23
2022-10-19T04:41:47.892Z,77.25
2022-10-19T04:42:50.047Z,77.40
2022-10-19T04:44:00.213Z,77.50
2022-10-19T04:45:02.405Z,77.47
2022-10-19T04:46:10.573Z,77.71
2022-10-19T04:47:12.818Z,77.95
2022-10-19T04:48:15.387Z,77.99
2022-10-19T04:49:19.531Z,77.59
2022-10-19T04:50:23.848Z,77.96
2022-10-19T04:51:31.190Z,78.29
2022-10-19T04:52:35.208Z,78.44
2022-10-19T04:53:39.459Z,79.00
2022-10-19T04:54:41.589Z,78.82
2022-10-19T04:55:43.908Z,78.74
2022-10-19T04:56:46.089Z,78.91
2022-10-19T04:57:48.278Z,77.88
2022-10-19T04:58:50.732Z,77.01
2022-10-19T04:59:52.903Z,76.97
2022-10-19T05:00:55.224Z,77.15
2022-10-19T05:01:57.373Z,77.57
2022-10-19T05:02:59.511Z,77.84
2022-10-19T05:04:03.075Z,77.41
2022-10-19T05:05:05.631Z,77.38
2022-10-19T05:06:09.001Z,77.69
2022-10-19T05:07:11.277Z,77.61
2022-10-19T05:08:13.448Z,77.67
2022-10-19T05:09:15.918Z,77.61
2022-10-19T05:10:18.348Z,77.51
2022-10-19T05:11:20.837Z,77.48
2022-10-19T05:12:23.125Z,77.60
2022-10-19T05:13:25.312Z,77.92
2022-10-19T05:15:34.686Z,78.06
2022-10-19T05:16:36.947Z,78.05
2022-10-19T05:17:39.409Z,78.27
2022-10-19T05:18:42.389Z,78.08
2022-10-19T05:19:44.520Z,78.24
2022-10-19T05:20:46.824Z,78.30
2022-10-19T05:21:49.015Z,78.14
2022-10-19T05:22:51.917Z,78.53
2022-10-19T05:23:56.218Z,78.59
2022-10-19T05:24:58.380Z,78.47
2022-10-19T05:26:01.556Z,78.44
2022-10-19T05:27:03.774Z,78.73
2022-10-19T05:28:06.113Z,79.25
2022-10-19T05:29:11.970Z,79.53
2022-10-19T05:30:14.666Z,79.45
2022-10-19T05:31:20.098Z,79.30
2022-10-19T05:32:22.387Z,79.48
2022-10-19T05:33:24.714Z,79.69
2022-10-19T05:34:27.120Z,79.79
2022-10-19T05:35:29.283Z,79.90
2022-10-19T05:36:39.369Z,79.60
2022-10-19T05:37:41.592Z,79.69
2022-10-19T05:38:46.462Z,79.49
2022-10-19T05:39:48.766Z,79.34
2022-10-19T05:40:53.597Z,79.71
2022-10-19T05:41:56.143Z,79.76
2022-10-19T05:42:58.460Z,80.01
2022-10-19T05:44:02.899Z,80.26
2022-10-19T05:45:05.778Z,80.33
2022-10-19T05:46:10.832Z,80.41
2022-10-19T05:47:13.027Z,80.69
2022-10-19T05:48:15.338Z,80.65
2022-10-19T05:49:19.806Z,80.60
2022-10-19T05:50:22.272Z,80.65
2022-10-19T05:51:25.980Z,80.69
2022-10-19T05:52:28.524Z,80.88
2022-10-19T05:53:31.843Z,81.05
2022-10-19T05:54:36.118Z,80.97
2022-10-19T05:55:38.279Z,80.88
2022-10-19T05:56:41.799Z,80.58
2022-10-19T05:57:44.160Z,80.45
2022-10-19T05:58:46.566Z,80.28
2022-10-19T05:59:48.858Z,80.65
2022-10-19T06:00:56.441Z,80.75
2022-10-19T06:01:58.780Z,81.07
2022-10-19T06:03:01.135Z,81.09
2022-10-19T06:04:04.231Z,81.11
2022-10-19T06:05:07.122Z,80.78
2022-10-19T06:06:10.098Z,80.77
2022-10-19T06:07:12.476Z,80.59
2022-10-19T06:08:15.161Z,80.40
2022-10-19T06:09:17.542Z,80.06
2022-10-19T06:10:21.217Z,80.19
2022-10-19T06:11:26.734Z,79.64
2022-10-19T06:12:29.035Z,79.70
2022-10-19T06:13:31.207Z,79.72
2022-10-19T06:14:33.533Z,80.12
2022-10-19T06:15:37.155Z,80.01
2022-10-19T06:16:39.575Z,80.06
2022-10-19T06:17:41.838Z,80.17
2022-10-19T06:18:44.726Z,80.30
2022-10-19T06:19:46.870Z,80.44
2022-10-19T06:20:49.335Z,80.39
2022-10-19T06:21:51.481Z,80.30
2022-10-19T06:22:53.840Z,80.22
2022-10-19T06:23:58.837Z,80.66
2022-10-19T06:25:01.209Z,80.65
2022-10-19T06:26:06.165Z,80.53
2022-10-19T06:27:08.390Z,80.43
2022-10-19T06:28:11.020Z,80.69
2022-10-19T06:29:13.460Z,80.60
2022-10-19T06:30:15.771Z,80.61
2022-10-19T06:31:18.003Z,80.38
2022-10-19T06:32:20.643Z,80.91
2022-10-19T06:33:22.930Z,80.76
2022-10-19T06:34:25.138Z,80.69
2022-10-19T06:35:27.502Z,80.87
2022-10-19T06:36:31.478Z,81.04
2022-10-19T06:37:34.090Z,80.87
2022-10-19T06:38:36.577Z,80.55
2022-10-19T06:39:38.821Z,80.18
2022-10-19T06:40:41.395Z,79.92
2022-10-19T06:41:43.554Z,79.26
2022-10-19T06:42:55.344Z,79.00
2022-10-19T06:43:57.939Z,78.85
2022-10-19T06:45:00.288Z,78.87
2022-10-19T06:46:07.339Z,79.46
2022-10-19T06:47:09.548Z,79.58
2022-10-19T06:48:11.735Z,79.62
2022-10-19T06:49:17.328Z,79.67
2022-10-19T06:50:20.625Z,79.95
2022-10-19T06:51:25.523Z,80.31
2022-10-19T06:52:27.731Z,80.72
2022-10-19T06:53:30.330Z,80.78
2022-10-19T06:54:32.520Z,80.91
2022-10-19T06:55:34.652Z,80.74
2022-10-19T06:56:37.005Z,80.93
2022-10-19T06:57:39.537Z,80.87
2022-10-19T06:58:41.757Z,80.21
2022-10-19T06:59:43.888Z,79.96
2022-10-19T07:00:46.166Z,79.80
2022-10-19T07:01:48.398Z,79.89
2022-10-19T07:02:50.524Z,79.73
2022-10-19T07:03:53.255Z,79.85
2022-10-19T07:04:55.449Z,79.70
2022-10-19T07:06:03.517Z,79.75
2022-10-19T07:07:08.540Z,79.62
2022-10-19T07:08:10.740Z,79.55
2022-10-19T07:09:12.978Z,79.89
2022-10-19T07:10:15.201Z,79.66
2022-10-19T07:11:19.806Z,79.41
2022-10-19T07:12:21.952Z,79.50
2022-10-19T07:13:24.944Z,79.40
2022-10-19T07:14:30.753Z,79.44
2022-10-19T07:15:33.118Z,79.45
2022-10-19T07:16:35.409Z,79.15
2022-10-19T07:17:37.636Z,79.42
2022-10-19T07:18:40.934Z,79.44
2022-10-19T07:19:43.245Z,79.45
2022-10-19T07:20:54.579Z,79.33
2022-10-19T07:21:56.870Z,79.29
2022-10-19T07:22:59.019Z,79.37
2022-10-19T07:24:01.150Z,79.48
2022-10-19T07:25:03.601Z,79.33
2022-10-19T07:26:27.893Z,79.27
2022-10-19T07:27:32.880Z,79.17
2022-10-19T07:28:41.144Z,78.93
2022-10-19T07:29:43.431Z,79.00
2022-10-19T07:30:45.594Z,79.02
2022-10-19T07:31:48.041Z,78.41
2022-10-19T07:32:50.191Z,78.64
2022-10-19T07:33:54.546Z,79.10
2022-10-19T07:34:56.741Z,78.89
2022-10-19T07:36:00.817Z,78.87
2022-10-19T07:37:03.190Z,78.68
2022-10-19T07:38:05.362Z,78.33
2022-10-19T07:39:07.904Z,78.04
2022-10-19T07:40:10.720Z,78.17
2022-10-19T07:41:15.647Z,77.86
2022-10-19T07:42:17.862Z,77.63
2022-10-19T07:43:20.024Z,77.24
2022-10-19T07:44:22.323Z,76.91
2022-10-19T07:45:24.509Z,76.88
2022-10-19T07:46:37.101Z,76.97
2022-10-19T07:47:39.332Z,76.50
2022-10-19T07:48:42.782Z,76.83
2022-10-19T07:49:45.224Z,76.77
2022-10-19T07:50:48.101Z,76.79
2022-10-19T07:51:54.106Z,76.45
2022-10-19T07:52:56.440Z,76.34
2022-10-19T07:53:59.422Z,76.49
2022-10-19T07:55:01.600Z,76.31
2022-10-19T07:56:09.155Z,75.88
2022-10-19T07:57:12.429Z,75.88
2022-10-19T07:58:14.787Z,75.96
2022-10-19T07:59:17.335Z,75.37
2022-10-19T08:00:19.626Z,75.33
2022-10-19T08:01:30.279Z,75.09
2022-10-19T08:02:39.667Z,74.76
2022-10-19T08:04:48.657Z,74.95
2022-10-19T08:05:18.939Z,75.24
2022-10-19T08:06:22.153Z,74.69
2022-10-19T08:07:24.408Z,74.79
2022-10-19T08:08:26.692Z,74.90
2022-10-19T08:09:51.601Z,74.66
2022-10-19T08:10:51.008Z,74.89
2022-10-19T08:11:53.571Z,74.61
2022-10-19T08:12:55.974Z,74.68
2022-10-19T08:14:02.889Z,73.76
2022-10-19T08:15:07.104Z,73.93
2022-10-19T08:16:44.564Z,74.22
2022-10-19T08:17:46.978Z,74.85
2022-10-19T08:18:50.130Z,74.99
2022-10-19T08:19:52.358Z,74.61
2022-10-19T08:20:54.526Z,74.63
2022-10-19T08:21:56.722Z,74.54
2022-10-19T08:22:59.262Z,74.33
2022-10-19T08:24:01.506Z,74.08
2022-10-19T08:25:03.865Z,74.37
2022-10-19T08:26:06.028Z,74.19
2022-10-19T08:27:08.302Z,74.01
2022-10-19T08:28:10.658Z,73.79
2022-10-19T08:29:14.400Z,73.49
2022-10-19T08:30:16.591Z,73.53
2022-10-19T08:31:22.252Z,73.63
2022-10-19T08:32:24.474Z,73.72
2022-10-19T08:33:26.906Z,73.24
2022-10-19T08:34:29.135Z,73.52
2022-10-19T08:35:31.699Z,73.10
2022-10-19T08:36:35.652Z,73.45
2022-10-19T08:37:45.079Z,73.21
2022-10-19T08:38:49.576Z,72.96
2022-10-19T08:39:52.287Z,73.43
2022-10-19T08:40:55.662Z,73.74
2022-10-19T08:42:05.481Z,73.89
2022-10-19T08:43:26.773Z,73.43
2022-10-19T08:44:34.778Z,72.79
2022-10-19T08:45:46.017Z,72.67
2022-10-19T08:47:07.719Z,72.23
2022-10-19T08:48:27.062Z,72.57
2022-10-19T08:49:31.997Z,72.55
2022-10-19T08:50:43.980Z,72.71
2022-10-19T08:51:51.788Z,72.49
2022-10-19T08:53:03.730Z,72.59
2022-10-19T08:54:12.557Z,72.44
2022-10-19T08:55:19.762Z,72.79
2022-10-19T08:56:55.592Z,72.44
2022-10-19T08:57:57.743Z,72.35
2022-10-19T08:59:06.159Z,72.05
2022-10-19T09:00:23.991Z,72.46
2022-10-19T09:01:26.253Z,72.85
2022-10-19T09:02:49.010Z,73.56
2022-10-19T09:03:55.752Z,74.02
2022-10-19T09:05:05.650Z,73.50
2022-10-19T09:06:37.464Z,73.03
2022-10-19T09:07:45.702Z,72.64
2022-10-19T09:08:52.938Z,72.67
2022-10-19T09:10:13.489Z,72.98
2022-10-19T09:11:20.932Z,72.72
2022-10-19T09:12:47.898Z,72.82
2022-10-19T09:14:06.086Z,72.84
2022-10-19T09:15:15.619Z,73.04
2022-10-19T09:16:19.775Z,73.21
2022-10-19T09:17:22.157Z,73.33
2022-10-19T09:18:30.685Z,72.87
2022-10-19T09:19:32.993Z,73.33
2022-10-19T09:20:39.976Z,73.04
2022-10-19T09:21:48.416Z,72.81
2022-10-19T09:23:02.041Z,72.13
2022-10-19T09:24:24.483Z,71.30
2022-10-19T09:25:29.213Z,71.08
2022-10-19T09:26:37.006Z,70.64
2022-10-19T09:27:43.487Z,70.42
2022-10-19T09:28:53.852Z,70.91
2022-10-19T09:29:58.457Z,70.71
2022-10-19T09:31:01.594Z,70.39
2022-10-19T09:32:10.932Z,69.52
2022-10-19T09:33:19.161Z,68.66
2022-10-19T09:34:29.896Z,69.13
2022-10-19T09:35:37.381Z,69.17
2022-10-19T09:36:50.357Z,68.94
2022-10-19T09:37:54.129Z,68.38
2022-10-19T09:38:56.457Z,67.90
2022-10-19T09:39:58.738Z,67.11
2022-10-19T09:41:21.797Z,67.96
2022-10-19T09:42:30.518Z,68.12
2022-10-19T09:43:32.884Z,67.87
2022-10-19T09:44:35.734Z,68.04
2022-10-19T09:45:52.330Z,67.95
2022-10-19T09:47:26.917Z,67.42
2022-10-19T09:48:35.515Z,66.64
2022-10-19T09:49:43.236Z,65.95
2022-10-19T09:50:46.188Z,65.23
2022-10-19T09:51:52.781Z,64.75
2022-10-19T09:53:05.781Z,64.55
2022-10-19T09:54:23.670Z,63.21
2022-10-19T09:55:34.227Z,62.74
2022-10-19T09:56:39.145Z,63.18
2022-10-19T09:57:46.470Z,63.75
2022-10-19T09:58:54.200Z,63.98
2022-10-19T09:59:56.637Z,63.58
2022-10-19T10:00:59.352Z,63.50
2022-10-19T10:02:18.263Z,64.04
2022-10-19T10:03:43.534Z,64.14
2022-10-19T10:04:55.030Z,63.80
2022-10-19T10:06:05.886Z,63.23
2022-10-19T10:07:16.417Z,63.08
2022-10-19T10:08:23.302Z,61.82
2022-10-19T10:09:28.884Z,61.92
2022-10-19T10:10:38.960Z,61.60
2022-10-19T10:11:41.504Z,61.42
2022-10-19T10:12:43.880Z,61.84
2022-10-19T10:13:52.433Z,62.27
2022-10-19T10:14:56.482Z,62.16
2022-10-19T10:16:05.651Z,62.11
2022-10-19T10:17:15.704Z,61.96
2022-10-19T10:18:18.981Z,61.34
2022-10-19T10:19:27.233Z,61.28
2022-10-19T10:20:32.545Z,61.63
2022-10-19T10:21:52.719Z,61.68
2022-10-19T10:23:00.022Z,62.73
2022-10-19T10:24:23.686Z,63.42
2022-10-19T10:25:34.678Z,63.44
2022-10-19T10:26:42.464Z,63.58
2022-10-19T10:27:55.314Z,63.71
2022-10-19T10:29:00.703Z,63.89
2022-10-19T10:30:19.945Z,64.07
2022-10-19T10:31:29.267Z,64.21
2022-10-19T10:32:32.368Z,64.13
2022-10-19T10:33:45.120Z,64.12
2022-10-19T10:34:58.390Z,64.69
2022-10-19T10:36:09.890Z,65.10
2022-10-19T10:37:36.573Z,64.73
2022-10-19T10:38:47.061Z,64.73
2022-10-19T10:40:00.491Z,64.71
2022-10-19T10:41:16.136Z,64.90
2022-10-19T10:42:35.222Z,64.69
2022-10-19T10:43:49.468Z,65.03
2022-10-19T10:44:54.220Z,65.49
2022-10-19T10:46:04.095Z,65.77
2022-10-19T10:47:14.827Z,66.21
2022-10-19T10:48:26.260Z,66.89
2022-10-19T10:49:34.049Z,67.64
2022-10-19T10:50:36.856Z,68.37
2022-10-19T10:51:43.652Z,68.83
2022-10-19T10:52:59.236Z,69.11
2022-10-19T10:54:30.086Z,69.41
2022-10-19T10:55:33.847Z,69.70
2022-10-19T10:56:40.457Z,70.56
2022-10-19T10:57:48.183Z,71.12
2022-10-19T10:58:59.616Z,71.27
2022-10-19T11:00:17.949Z,71.47
2022-10-19T11:01:23.624Z,71.28
2022-10-19T11:02:35.000Z,71.27
2022-10-19T11:03:51.696Z,70.92
2022-10-19T11:05:10.919Z,70.41
2022-10-19T11:06:14.700Z,69.87
2022-10-19T11:07:20.140Z,69.74
2022-10-19T11:08:50.345Z,69.33
2022-10-19T11:09:57.299Z,69.10
2022-10-19T11:11:15.731Z,68.14
2022-10-19T11:12:36.117Z,68.25
2022-10-19T11:13:56.473Z,69.15
2022-10-19T11:15:06.835Z,69.28
2022-10-19T11:16:22.211Z,69.03
2022-10-19T11:17:29.745Z,68.74
2022-10-19T11:18:41.239Z,68.90
2022-10-19T11:19:45.186Z,69.14
2022-10-19T11:20:58.743Z,69.23
2022-10-19T11:22:24.984Z,69.65
2022-10-19T11:24:03.636Z,69.39
2022-10-19T11:25:17.424Z,69.40
2022-10-19T11:26:31.275Z,69.38
2022-10-19T11:27:53.764Z,68.89
2022-10-19T11:29:23.841Z,68.68
2022-10-19T11:30:27.042Z,68.22
2022-10-19T11:31:54.021Z,68.48
2022-10-19T11:33:15.670Z,68.79
2022-10-19T11:34:32.785Z,68.53
2022-10-19T11:35:35.045Z,68.24
2022-10-19T11:36:54.238Z,68.31
2022-10-19T11:38:29.615Z,68.45
2022-10-19T11:39:46.840Z,68.91
2022-10-19T11:41:16.767Z,69.14
2022-10-19T11:42:44.652Z,68.52
2022-10-19T11:43:59.277Z,68.70
2022-10-19T11:45:13.772Z,68.45
2022-10-19T11:46:28.838Z,68.51
2022-10-19T11:47:55.244Z,68.18
2022-10-19T11:48:57.357Z,67.89
2022-10-19T11:50:33.219Z,67.56
2022-10-19T11:51:52.009Z,67.52
2022-10-19T11:53:03.148Z,67.50
2022-10-19T11:54:23.372Z,67.49
2022-10-19T11:55:43.867Z,67.86
2022-10-19T11:57:06.403Z,68.06
2022-10-19T11:58:35.273Z,68.25
2022-10-19T12:00:08.301Z,68.25
2022-10-19T12:01:28.951Z,67.78
2022-10-19T12:03:08.643Z,68.07
2022-10-19T12:04:16.453Z,68.07
2022-10-19T12:05:27.966Z,68.15
2022-10-19T12:06:35.986Z,68.24
2022-10-19T12:07:44.960Z,68.10
2022-10-19T12:09:18.348Z,67.92
2022-10-19T12:10:38.347Z,68.01
2022-10-19T12:11:52.988Z,68.17
2022-10-19T12:13:05.298Z,67.81
2022-10-19T12:14:14.076Z,68.09
2022-10-19T12:15:26.180Z,68.54
2022-10-19T12:16:42.266Z,68.51
2022-10-19T12:17:50.267Z,69.03
2022-10-19T12:18:58.402Z,68.74
2022-10-19T12:20:06.429Z,69.38
2022-10-19T12:21:29.505Z,70.01
2022-10-19T12:22:34.083Z,69.64
2022-10-19T12:23:41.595Z,69.81
2022-10-19T12:24:43.919Z,69.17
2022-10-19T12:25:47.444Z,69.18
2022-10-19T12:26:51.240Z,68.92
2022-10-19T12:27:54.220Z,68.56
2022-10-19T12:28:59.706Z,68.08
2022-10-19T12:30:09.013Z,68.16
2022-10-19T12:31:12.365Z,67.98
2022-10-19T12:32:19.725Z,67.56
2022-10-19T12:33:38.332Z,67.37
2022-10-19T12:35:04.515Z,66.38
2022-10-19T12:36:15.534Z,66.53
2022-10-19T12:37:26.978Z,65.94
2022-10-19T12:38:47.980Z,66.31
2022-10-19T12:40:46.728Z,66.15
2022-10-19T12:41:58.061Z,66.13
2022-10-19T12:43:07.646Z,66.03
2022-10-19T12:44:34.909Z,66.06
2022-10-19T12:45:43.997Z,65.79
2022-10-19T12:46:53.742Z,65.58
2022-10-19T12:48:08.038Z,64.82
2022-10-19T12:49:28.627Z,64.66
2022-10-19T12:50:48.729Z,64.50
2022-10-19T12:51:51.972Z,64.07
2022-10-19T12:52:54.720Z,64.01
2022-10-19T12:54:09.515Z,63.79
2022-10-19T12:55:24.968Z,63.57
2022-10-19T12:56:27.339Z,63.77
2022-10-19T12:57:30.485Z,63.93
2022-10-19T12:58:56.500Z,63.92
2022-10-19T13:00:01.560Z,63.61
2022-10-19T13:01:06.388Z,63.24
2022-10-19T13:02:28.666Z,62.93
2022-10-19T13:03:41.229Z,63.18
2022-10-19T13:04:53.172Z,62.40
2022-10-19T13:05:57.551Z,62.04
2022-10-19T13:07:06.049Z,62.12
2022-10-19T13:08:12.094Z,62.13
2022-10-19T13:09:27.302Z,61.65
2022-10-19T13:10:32.278Z,61.62
2022-10-19T13:11:36.327Z,61.10
2022-10-19T13:12:44.831Z,61.34
2022-10-19T13:14:27.302Z,61.04
2022-10-19T13:15:32.442Z,61.19
2022-10-19T13:16:37.560Z,60.89
2022-10-19T13:17:41.483Z,61.22
2022-10-19T13:19:21.376Z,61.04
2022-10-19T13:20:25.353Z,60.22
2022-10-19T13:21:47.886Z,60.38
2022-10-19T13:23:05.863Z,60.26
2022-10-19T13:24:26.137Z,60.35
2022-10-19T13:25:29.425Z,60.60
2022-10-19T13:26:35.579Z,60.28
2022-10-19T13:27:39.597Z,60.08
2022-10-19T13:28:53.231Z,59.93
2022-10-19T13:29:56.069Z,60.01
2022-10-19T13:31:06.023Z,60.07
2022-10-19T13:32:37.804Z,60.05
2022-10-19T13:33:48.897Z,59.77
2022-10-19T13:34:51.313Z,59.95
2022-10-19T13:35:59.708Z,60.07
2022-10-19T13:37:04.035Z,60.14
2022-10-19T13:38:15.105Z,60.21
2022-10-19T13:39:17.423Z,60.12
2022-10-19T13:40:24.490Z,59.91
2022-10-19T13:41:39.071Z,59.08
2022-10-19T13:42:41.329Z,59.00
2022-10-19T13:43:43.632Z,58.86
2022-10-19T13:44:47.230Z,59.31
2022-10-19T13:46:07.819Z,59.12
2022-10-19T13:47:23.084Z,59.25
2022-10-19T13:48:52.490Z,59.45
2022-10-19T13:50:39.445Z,59.26
2022-10-19T13:52:09.242Z,59.60
2022-10-19T13:53:35.109Z,60.43
2022-10-19T13:55:14.591Z,60.67
2022-10-19T13:56:45.318Z,60.76
2022-10-19T13:58:18.781Z,61.11
2022-10-19T13:59:20.901Z,60.85
2022-10-19T14:00:38.272Z,60.92
2022-10-19T14:02:25.099Z,60.81
2022-10-19T14:04:02.487Z,60.65
2022-10-19T14:05:50.468Z,60.64
2022-10-19T14:07:12.418Z,60.51
2022-10-19T14:09:05.339Z,60.65
2022-10-19T14:10:17.696Z,60.19
2022-10-19T14:11:48.502Z,60.53
2022-10-19T14:12:51.683Z,60.53
2022-10-19T14:14:16.158Z,60.24
2022-10-19T14:15:18.392Z,60.02
2022-10-19T14:16:21.998Z,59.98
2022-10-19T14:17:30.221Z,60.32
2022-10-19T14:18:35.080Z,60.50
2022-10-19T14:19:47.502Z,60.44
2022-10-19T14:21:00.205Z,60.58
2022-10-19T14:22:19.681Z,60.62
2022-10-19T14:23:28.200Z,61.30
2022-10-19T14:24:35.345Z,62.22
2022-10-19T14:25:37.665Z,62.90
2022-10-19T14:26:39.927Z,63.28
2022-10-19T14:27:42.900Z,63.45
2022-10-19T14:28:45.219Z,63.56
2022-10-19T14:29:50.502Z,63.72
2022-10-19T14:30:57.047Z,63.92
2022-10-19T14:32:00.322Z,63.90
2022-10-19T14:33:17.835Z,63.66
2022-10-19T14:34:20.480Z,63.65
2022-10-19T14:35:28.621Z,63.45
2022-10-19T14:36:36.550Z,63.97
2022-10-19T14:37:42.522Z,64.13
2022-10-19T14:38:45.389Z,64.07